aviador You're here:

KQD3 Decoded Metar

in
Report Time2017-06-27 04:55:00
UTC Time2017-06-27 05:25:55
Flight Rules vfr VFR
WindVRB at 04 kt
Visibility9000 m
Phenomena:Haze
Clouds:N/A
Expected CloudBase > 7,600 ft AGL from Temp-Dew spread
CeilingNone
Temp36°C
Dew Point17°C (32% RH)
Heat Index36.7°C
QNH1004 hPa
Raw Report
METAR KQD3 270455Z VRB04KT 9000 HZ CLR 36/17 A2964 RMK SLPNO WND DATA
ESTMD $=

Extra information for KQD3:More info

Social comments